createdAt,value
2022-11-15T00:01:31.803Z,75.82
2022-11-15T00:06:48.822Z,75.88
2022-11-15T00:12:08.073Z,75.66
2022-11-15T00:17:25.476Z,75.79
2022-11-15T00:22:42.802Z,76.72
2022-11-15T00:28:02.129Z,77.12
2022-11-15T00:33:20.308Z,76.79
2022-11-15T00:38:39.327Z,76.78
2022-11-15T00:43:57.937Z,76.27
2022-11-15T00:49:15.151Z,76.28
2022-11-15T00:54:32.064Z,76.24
2022-11-15T00:59:50.666Z,76.62
2022-11-15T01:05:09.058Z,76.25
2022-11-15T01:10:27.132Z,76.36
2022-11-15T01:15:45.976Z,75.63
2022-11-15T01:21:07.820Z,75.37
2022-11-15T01:26:26.340Z,74.70
2022-11-15T01:31:45.201Z,73.89
2022-11-15T01:37:02.293Z,73.20
2022-11-15T01:42:20.884Z,72.97
2022-11-15T01:47:42.770Z,73.10
2022-11-15T01:53:00.183Z,72.70
2022-11-15T01:58:17.725Z,72.54
2022-11-15T02:03:44.002Z,72.58
2022-11-15T02:09:02.714Z,72.70
2022-11-15T02:14:25.381Z,72.83
2022-11-15T02:20:14.322Z,72.26
2022-11-15T02:25:43.488Z,72.34
2022-11-15T02:31:09.241Z,72.09
2022-11-15T02:36:38.516Z,71.92
2022-11-15T02:41:59.958Z,71.42
2022-11-15T02:47:19.942Z,71.32
2022-11-15T02:52:37.676Z,71.00
2022-11-15T02:58:08.748Z,70.62
2022-11-15T03:03:44.701Z,70.19
2022-11-15T03:09:09.576Z,70.36
2022-11-15T03:14:32.101Z,70.31
2022-11-15T03:19:53.956Z,70.19
2022-11-15T03:25:15.558Z,69.93
2022-11-15T03:30:34.343Z,69.98
2022-11-15T03:35:55.192Z,69.80
2022-11-15T03:41:22.672Z,69.85
2022-11-15T03:46:45.349Z,69.57
2022-11-15T03:52:05.421Z,69.83
2022-11-15T03:57:23.320Z,69.70
2022-11-15T04:02:41.152Z,69.90
2022-11-15T04:07:59.667Z,69.49
2022-11-15T04:13:16.634Z,69.05
2022-11-15T04:18:33.562Z,68.95
2022-11-15T04:24:06.262Z,69.21
2022-11-15T04:29:38.797Z,69.28
2022-11-15T04:34:56.062Z,69.10
2022-11-15T04:40:14.887Z,69.12
2022-11-15T04:45:32.521Z,68.99
2022-11-15T04:50:50.128Z,69.36
2022-11-15T04:56:09.448Z,69.35
2022-11-15T05:01:26.996Z,69.40
2022-11-15T05:06:44.114Z,68.98
2022-11-15T05:12:02.359Z,69.38
2022-11-15T05:22:45.534Z,69.46
2022-11-15T05:28:04.758Z,69.21
2022-11-15T05:33:22.064Z,69.02
2022-11-15T05:38:40.009Z,69.00
2022-11-15T05:43:59.687Z,69.22
2022-11-15T05:49:22.211Z,68.81
2022-11-15T05:54:39.792Z,68.65
2022-11-15T05:59:58.829Z,68.29
2022-11-15T06:05:16.245Z,68.56
2022-11-15T06:10:33.047Z,68.17
2022-11-15T06:15:51.404Z,68.09
2022-11-15T06:21:08.669Z,67.66
2022-11-15T06:26:25.714Z,67.52
2022-11-15T06:31:44.190Z,67.37
2022-11-15T06:37:01.437Z,67.11
2022-11-15T06:42:19.055Z,66.92
2022-11-15T06:47:37.872Z,66.75
2022-11-15T06:52:55.568Z,66.70
2022-11-15T06:58:12.820Z,66.66
2022-11-15T07:03:31.254Z,66.18
2022-11-15T07:08:48.821Z,66.11
2022-11-15T07:14:05.695Z,66.23
2022-11-15T07:19:24.161Z,65.79
2022-11-15T07:24:41.413Z,65.89
2022-11-15T07:29:58.675Z,65.98
2022-11-15T07:35:17.346Z,65.95
2022-11-15T07:40:35.009Z,65.56
2022-11-15T07:45:57.555Z,65.42
2022-11-15T07:51:18.758Z,65.06
2022-11-15T07:56:35.731Z,65.08
2022-11-15T08:01:53.146Z,64.97
2022-11-15T08:07:11.983Z,64.48
2022-11-15T08:12:29.793Z,63.60
2022-11-15T08:17:47.294Z,64.12
2022-11-15T08:23:07.298Z,63.88
2022-11-15T08:28:25.948Z,63.24
2022-11-15T08:33:43.193Z,63.46
2022-11-15T08:39:02.485Z,63.35
2022-11-15T08:44:19.553Z,62.90
2022-11-15T08:49:36.940Z,62.80
2022-11-15T08:54:55.532Z,62.89
2022-11-15T09:00:14.425Z,62.63
2022-11-15T09:05:31.753Z,62.75
2022-11-15T09:10:50.356Z,62.61
2022-11-15T09:16:08.426Z,61.92
2022-11-15T09:21:25.535Z,61.68
2022-11-15T09:26:43.973Z,61.30
2022-11-15T09:32:01.488Z,60.45
2022-11-15T09:37:18.846Z,60.69
2022-11-15T09:42:54.627Z,61.24
2022-11-15T09:48:33.437Z,60.30
2022-11-15T09:59:46.457Z,60.67
2022-11-15T10:04:45.250Z,60.29
2022-11-15T10:09:51.626Z,60.15
2022-11-15T10:14:57.517Z,60.11
2022-11-15T10:20:07.830Z,60.07
2022-11-15T10:25:18.388Z,60.16
2022-11-15T10:30:20.457Z,60.92
2022-11-15T10:35:24.759Z,60.84
2022-11-15T10:40:26.219Z,61.57
2022-11-15T10:45:29.308Z,62.04
2022-11-15T10:50:31.036Z,61.63
2022-11-15T10:55:33.845Z,61.29
2022-11-15T11:00:37.198Z,61.08
2022-11-15T11:05:41.825Z,61.16
2022-11-15T11:10:58.583Z,60.82
2022-11-15T11:16:26.963Z,60.66
2022-11-15T11:21:39.750Z,61.08
2022-11-15T11:26:51.698Z,60.75
2022-11-15T11:32:03.555Z,60.43
2022-11-15T11:37:13.206Z,60.57
2022-11-15T11:42:20.119Z,59.73
2022-11-15T11:47:25.485Z,60.38
2022-11-15T11:52:28.297Z,60.36
2022-11-15T11:57:35.852Z,60.98
2022-11-15T12:02:41.359Z,61.02
2022-11-15T12:07:43.268Z,61.26
2022-11-15T12:12:49.724Z,61.16
2022-11-15T12:17:50.782Z,61.19
2022-11-15T12:22:56.228Z,61.27
2022-11-15T12:27:59.743Z,61.55
2022-11-15T12:33:01.590Z,61.28
2022-11-15T12:38:00.696Z,60.73
2022-11-15T12:43:05.395Z,61.04
2022-11-15T12:48:41.893Z,60.79
2022-11-15T12:53:42.148Z,60.65
2022-11-15T12:58:45.037Z,60.38
2022-11-15T13:04:10.350Z,60.44
2022-11-15T13:09:42.144Z,60.38
2022-11-15T13:14:48.339Z,60.15
2022-11-15T13:19:48.914Z,59.83
2022-11-15T13:24:47.722Z,60.05
2022-11-15T13:29:47.902Z,60.52
2022-11-15T13:34:52.745Z,60.85
2022-11-15T13:39:52.079Z,60.67
2022-11-15T13:44:59.579Z,60.78
2022-11-15T13:49:59.669Z,60.76
2022-11-15T13:55:03.352Z,63.18
2022-11-15T14:00:07.004Z,62.02
2022-11-15T14:05:21.432Z,62.74
2022-11-15T14:10:29.655Z,63.22
2022-11-15T14:15:33.281Z,62.62
2022-11-15T14:20:36.421Z,62.37
2022-11-15T14:25:37.213Z,62.33
2022-11-15T14:30:37.380Z,62.19
2022-11-15T14:35:41.072Z,62.24
2022-11-15T14:40:40.212Z,62.17
2022-11-15T14:45:40.851Z,61.96
2022-11-15T14:50:39.868Z,61.85
2022-11-15T14:55:38.663Z,62.32
2022-11-15T15:00:37.815Z,62.96
2022-11-15T15:05:41.556Z,63.08
2022-11-15T15:10:43.235Z,63.07
2022-11-15T15:15:42.010Z,64.55
2022-11-15T15:20:43.907Z,65.61
2022-11-15T15:25:43.128Z,65.77
2022-11-15T15:30:42.295Z,66.16
2022-11-15T15:35:42.491Z,65.35
2022-11-15T15:40:41.565Z,66.33
2022-11-15T15:45:41.965Z,66.99
2022-11-15T15:50:43.915Z,66.25
2022-11-15T15:55:42.824Z,66.84
2022-11-15T16:00:41.792Z,65.95
2022-11-15T16:05:42.214Z,66.76
2022-11-15T16:10:41.026Z,67.21
2022-11-15T16:15:40.017Z,67.58
2022-11-15T16:20:43.196Z,67.05
2022-11-15T16:25:44.411Z,66.14
2022-11-15T16:30:42.977Z,65.84
2022-11-15T16:35:42.024Z,65.82
2022-11-15T16:40:40.856Z,65.71
2022-11-15T16:45:41.072Z,65.92
2022-11-15T16:50:43.151Z,65.98
2022-11-15T16:55:41.896Z,66.10
2022-11-15T17:00:42.059Z,66.38
2022-11-15T17:05:40.784Z,66.09
2022-11-15T17:10:41.523Z,65.99
2022-11-15T17:15:41.847Z,65.71
2022-11-15T17:20:42.319Z,65.57
2022-11-15T17:25:41.508Z,65.92
2022-11-15T17:30:44.405Z,66.01
2022-11-15T17:35:43.180Z,65.80
2022-11-15T17:40:41.997Z,65.80
2022-11-15T17:45:43.302Z,66.30
2022-11-15T17:50:42.307Z,66.12
2022-11-15T17:55:41.134Z,66.27
2022-11-15T18:00:39.924Z,67.22
2022-11-15T18:05:41.165Z,67.10
2022-11-15T18:10:39.987Z,66.69
2022-11-15T18:15:38.739Z,66.83
2022-11-15T18:20:39.084Z,66.41
2022-11-15T18:25:37.887Z,66.34
2022-11-15T18:30:39.741Z,66.57
2022-11-15T18:35:40.524Z,67.09
2022-11-15T18:40:39.287Z,67.29
2022-11-15T18:45:37.980Z,67.74
2022-11-15T18:50:36.742Z,67.89
2022-11-15T18:55:36.930Z,68.64
2022-11-15T19:00:35.702Z,68.67
2022-11-15T19:05:35.477Z,68.01
2022-11-15T19:10:37.217Z,68.42
2022-11-15T19:15:36.499Z,67.78
2022-11-15T19:20:37.144Z,67.50
2022-11-15T19:25:37.231Z,67.41
2022-11-15T19:30:36.345Z,67.44
2022-11-15T19:35:47.138Z,67.35
2022-11-15T19:40:47.278Z,67.35
2022-11-15T19:45:56.973Z,67.45
2022-11-15T19:51:02.085Z,67.36
2022-11-15T19:56:04.227Z,67.26
2022-11-15T20:01:04.395Z,67.40
2022-11-15T20:06:05.209Z,67.24
2022-11-15T20:11:06.884Z,68.66
2022-11-15T20:16:06.358Z,68.66
2022-11-15T20:21:08.411Z,69.09
2022-11-15T20:26:10.876Z,69.32
2022-11-15T20:31:11.103Z,68.81
2022-11-15T20:36:17.945Z,69.11
2022-11-15T20:41:21.731Z,68.50
2022-11-15T20:46:22.785Z,68.18
2022-11-15T20:51:23.070Z,67.94
2022-11-15T20:56:25.801Z,68.04
2022-11-15T21:01:25.600Z,67.93
2022-11-15T21:06:26.237Z,68.00
2022-11-15T21:11:44.260Z,68.04
2022-11-15T21:16:43.165Z,68.18
2022-11-15T21:21:42.326Z,68.21
2022-11-15T21:26:42.963Z,68.17
2022-11-15T21:31:41.963Z,68.43
2022-11-15T21:36:40.787Z,68.54
2022-11-15T21:41:39.683Z,68.41
2022-11-15T21:46:40.131Z,68.72
2022-11-15T21:51:39.138Z,68.61
2022-11-15T21:56:38.017Z,70.44
2022-11-15T22:01:54.328Z,70.39
2022-11-15T22:06:54.511Z,69.85
2022-11-15T22:11:53.530Z,70.32
2022-11-15T22:16:52.414Z,71.67
2022-11-15T22:21:51.454Z,70.96
2022-11-15T22:26:52.051Z,71.67
2022-11-15T22:31:51.138Z,71.22
2022-11-15T22:37:18.046Z,70.75
2022-11-15T22:42:10.764Z,71.43
2022-11-15T22:47:09.784Z,72.29
2022-11-15T22:52:08.713Z,71.37
2022-11-15T22:57:07.645Z,72.74
2022-11-15T23:07:57.848Z,72.28
2022-11-15T23:13:14.000Z,71.39
2022-11-15T23:18:16.819Z,70.97
2022-11-15T23:23:15.967Z,70.82
2022-11-15T23:28:14.997Z,71.60
2022-11-15T23:33:34.724Z,71.45
2022-11-15T23:38:35.303Z,72.84
2022-11-15T23:43:34.542Z,72.10
2022-11-15T23:48:35.161Z,72.20
2022-11-15T23:53:34.345Z,72.11
2022-11-15T23:58:33.570Z,72.28
